sensor_id;sensor_type;location;lat;lon;timestamp;temperature;humidity
1383;DHT22;685;47.196;11.880;2022-09-20T00:02:24;9.00;99.90
1383;DHT22;685;47.196;11.880;2022-09-20T00:04:51;8.40;99.90
1383;DHT22;685;47.196;11.880;2022-09-20T00:07:18;8.40;99.90
1383;DHT22;685;47.196;11.880;2022-09-20T00:09:47;8.50;99.90
1383;DHT22;685;47.196;11.880;2022-09-20T00:12:14;8.20;99.90
1383;DHT22;685;47.196;11.880;2022-09-20T00:14:41;8.20;99.90
1383;DHT22;685;47.196;11.880;2022-09-20T00:17:08;8.20;99.90
1383;DHT22;685;47.196;11.880;2022-09-20T00:19:35;8.40;99.90
1383;DHT22;685;47.196;11.880;2022-09-20T00:22:02;8.40;99.90
1383;DHT22;685;47.196;11.880;2022-09-20T00:24:29;8.30;99.90
1383;DHT22;685;47.196;11.880;2022-09-20T00:26:57;8.60;99.90
1383;DHT22;685;47.196;11.880;2022-09-20T00:29:24;8.70;99.90
1383;DHT22;685;47.196;11.880;2022-09-20T00:31:51;8.80;99.90
1383;DHT22;685;47.196;11.880;2022-09-20T00:34:18;8.80;99.90
1383;DHT22;685;47.196;11.880;2022-09-20T00:37:02;8.70;99.90
1383;DHT22;685;47.196;11.880;2022-09-20T00:39:29;8.70;99.90
1383;DHT22;685;47.196;11.880;2022-09-20T00:41:58;8.60;99.90
1383;DHT22;685;47.196;11.880;2022-09-20T00:44:42;8.40;99.90
1383;DHT22;685;47.196;11.880;2022-09-20T00:47:16;8.20;99.90
1383;DHT22;685;47.196;11.880;2022-09-20T00:49:45;8.00;99.90
1383;DHT22;685;47.196;11.880;2022-09-20T00:52:12;7.80;99.90
1383;DHT22;685;47.196;11.880;2022-09-20T00:54:40;7.70;99.90
1383;DHT22;685;47.196;11.880;2022-09-20T00:57:09;7.90;99.90
1383;DHT22;685;47.196;11.880;2022-09-20T00:59:38;7.90;99.90
1383;DHT22;685;47.196;11.880;2022-09-20T01:02:11;8.00;99.90
1383;DHT22;685;47.196;11.880;2022-09-20T01:04:41;8.30;99.90
1383;DHT22;685;47.196;11.880;2022-09-20T01:07:10;8.40;99.90
1383;DHT22;685;47.196;11.880;2022-09-20T01:09:38;8.50;99.90
1383;DHT22;685;47.196;11.880;2022-09-20T01:12:10;8.60;99.90
1383;DHT22;685;47.196;11.880;2022-09-20T01:14:41;8.70;99.90
1383;DHT22;685;47.196;11.880;2022-09-20T01:17:10;8.80;99.90
1383;DHT22;685;47.196;11.880;2022-09-20T01:19:40;9.00;99.90
1383;DHT22;685;47.196;11.880;2022-09-20T01:22:14;9.00;99.90
1383;DHT22;685;47.196;11.880;2022-09-20T01:24:48;9.10;99.90
1383;DHT22;685;47.196;11.880;2022-09-20T01:27:22;9.10;99.90
1383;DHT22;685;47.196;11.880;2022-09-20T01:30:03;9.20;99.90
1383;DHT22;685;47.196;11.880;2022-09-20T01:32:39;9.00;99.90
1383;DHT22;685;47.196;11.880;2022-09-20T01:35:08;8.80;99.90
1383;DHT22;685;47.196;11.880;2022-09-20T01:37:45;8.70;99.90
1383;DHT22;685;47.196;11.880;2022-09-20T01:40:19;8.70;99.90
1383;DHT22;685;47.196;11.880;2022-09-20T01:42:57;8.80;99.90
1383;DHT22;685;47.196;11.880;2022-09-20T01:45:31;8.70;99.90
1383;DHT22;685;47.196;11.880;2022-09-20T01:48:05;8.60;99.90
1383;DHT22;685;47.196;11.880;2022-09-20T01:50:40;8.70;99.90
1383;DHT22;685;47.196;11.880;2022-09-20T01:56:41;8.70;99.90
1383;DHT22;685;47.196;11.880;2022-09-20T02:02:40;8.40;99.90
1383;DHT22;685;47.196;11.880;2022-09-20T02:05:38;8.40;99.90
1383;DHT22;685;47.196;11.880;2022-09-20T02:08:40;8.30;99.90
1383;DHT22;685;47.196;11.880;2022-09-20T02:11:12;8.40;99.90
1383;DHT22;685;47.196;11.880;2022-09-20T02:16:49;8.40;99.90
1383;DHT22;685;47.196;11.880;2022-09-20T02:22:40;8.40;99.90
1383;DHT22;685;47.196;11.880;2022-09-20T02:25:17;8.00;99.90
1383;DHT22;685;47.196;11.880;2022-09-20T02:27:58;7.60;99.90
1383;DHT22;685;47.196;11.880;2022-09-20T02:30:37;7.80;99.90
1383;DHT22;685;47.196;11.880;2022-09-20T02:33:26;7.90;99.90
1383;DHT22;685;47.196;11.880;2022-09-20T02:36:17;8.10;99.90
1383;DHT22;685;47.196;11.880;2022-09-20T02:38:56;7.90;99.90
1383;DHT22;685;47.196;11.880;2022-09-20T02:41:56;7.50;99.90
1383;DHT22;685;47.196;11.880;2022-09-20T02:44:48;7.40;99.90
1383;DHT22;685;47.196;11.880;2022-09-20T02:47:24;7.40;99.90
1383;DHT22;685;47.196;11.880;2022-09-20T02:49:59;7.50;99.90
1383;DHT22;685;47.196;11.880;2022-09-20T02:52:36;7.60;99.90
1383;DHT22;685;47.196;11.880;2022-09-20T02:55:12;7.90;99.90
1383;DHT22;685;47.196;11.880;2022-09-20T02:57:49;7.90;99.90
1383;DHT22;685;47.196;11.880;2022-09-20T03:00:20;8.00;99.90
1383;DHT22;685;47.196;11.880;2022-09-20T03:02:59;7.90;99.90
1383;DHT22;685;47.196;11.880;2022-09-20T03:05:35;8.00;99.90
1383;DHT22;685;47.196;11.880;2022-09-20T03:08:25;8.10;99.90
1383;DHT22;685;47.196;11.880;2022-09-20T03:11:03;7.90;99.90
1383;DHT22;685;47.196;11.880;2022-09-20T03:13:47;7.70;99.90
1383;DHT22;685;47.196;11.880;2022-09-20T03:16:21;7.10;99.90
1383;DHT22;685;47.196;11.880;2022-09-20T03:18:59;7.50;99.90
1383;DHT22;685;47.196;11.880;2022-09-20T03:21:39;7.80;99.90
1383;DHT22;685;47.196;11.880;2022-09-20T03:24:20;7.90;99.90
1383;DHT22;685;47.196;11.880;2022-09-20T03:26:57;7.90;99.90
1383;DHT22;685;47.196;11.880;2022-09-20T03:29:39;7.90;99.90
1383;DHT22;685;47.196;11.880;2022-09-20T03:32:20;7.70;99.90
1383;DHT22;685;47.196;11.880;2022-09-20T03:35:00;7.50;99.90
1383;DHT22;685;47.196;11.880;2022-09-20T03:37:49;7.50;99.90
1383;DHT22;685;47.196;11.880;2022-09-20T03:40:40;7.70;99.90
1383;DHT22;685;47.196;11.880;2022-09-20T03:43:24;7.90;99.90
1383;DHT22;685;47.196;11.880;2022-09-20T03:46:02;7.70;99.90
1383;DHT22;685;47.196;11.880;2022-09-20T03:48:55;7.40;99.90
1383;DHT22;685;47.196;11.880;2022-09-20T03:51:28;7.50;99.90
1383;DHT22;685;47.196;11.880;2022-09-20T03:57:22;7.70;99.90
1383;DHT22;685;47.196;11.880;2022-09-20T04:00:22;7.70;99.90
1383;DHT22;685;47.196;11.880;2022-09-20T04:03:05;7.40;99.90
1383;DHT22;685;47.196;11.880;2022-09-20T04:05:44;7.30;99.90
1383;DHT22;685;47.196;11.880;2022-09-20T04:08:24;7.30;99.90
1383;DHT22;685;47.196;11.880;2022-09-20T04:11:00;7.40;99.90
1383;DHT22;685;47.196;11.880;2022-09-20T04:13:34;7.30;99.90
1383;DHT22;685;47.196;11.880;2022-09-20T04:16:22;7.30;99.90
1383;DHT22;685;47.196;11.880;2022-09-20T04:18:56;7.50;99.90
1383;DHT22;685;47.196;11.880;2022-09-20T04:21:29;7.50;99.90
1383;DHT22;685;47.196;11.880;2022-09-20T04:24:02;7.50;99.90
1383;DHT22;685;47.196;11.880;2022-09-20T04:26:32;7.50;99.90
1383;DHT22;685;47.196;11.880;2022-09-20T04:29:12;7.50;99.90
1383;DHT22;685;47.196;11.880;2022-09-20T04:31:46;7.40;99.90
1383;DHT22;685;47.196;11.880;2022-09-20T04:34:20;7.40;99.90
1383;DHT22;685;47.196;11.880;2022-09-20T04:36:56;7.30;99.90
1383;DHT22;685;47.196;11.880;2022-09-20T04:39:33;7.00;99.90
1383;DHT22;685;47.196;11.880;2022-09-20T04:42:39;7.00;99.90
1383;DHT22;685;47.196;11.880;2022-09-20T05:01:51;7.30;99.90
1383;DHT22;685;47.196;11.880;2022-09-20T05:08:02;7.30;99.90
1383;DHT22;685;47.196;11.880;2022-09-20T05:10:50;7.30;99.90
1383;DHT22;685;47.196;11.880;2022-09-20T05:13:30;7.50;99.90
1383;DHT22;685;47.196;11.880;2022-09-20T05:16:03;7.60;99.90
1383;DHT22;685;47.196;11.880;2022-09-20T05:18:52;7.60;99.90
1383;DHT22;685;47.196;11.880;2022-09-20T05:21:44;7.60;99.90
1383;DHT22;685;47.196;11.880;2022-09-20T05:24:31;7.50;99.90
1383;DHT22;685;47.196;11.880;2022-09-20T05:27:14;7.50;99.90
1383;DHT22;685;47.196;11.880;2022-09-20T05:29:50;7.60;99.90
1383;DHT22;685;47.196;11.880;2022-09-20T05:32:23;7.70;99.90
1383;DHT22;685;47.196;11.880;2022-09-20T05:34:59;7.60;99.90
1383;DHT22;685;47.196;11.880;2022-09-20T05:37:34;7.60;99.90
1383;DHT22;685;47.196;11.880;2022-09-20T05:40:11;7.70;99.90
1383;DHT22;685;47.196;11.880;2022-09-20T05:42:49;7.70;99.90
1383;DHT22;685;47.196;11.880;2022-09-20T05:45:56;7.80;99.90
1383;DHT22;685;47.196;11.880;2022-09-20T05:48:35;7.80;99.90
1383;DHT22;685;47.196;11.880;2022-09-20T05:51:12;7.90;99.90
1383;DHT22;685;47.196;11.880;2022-09-20T05:54:20;8.10;99.90
1383;DHT22;685;47.196;11.880;2022-09-20T05:56:58;8.20;99.90
1383;DHT22;685;47.196;11.880;2022-09-20T05:59:43;8.00;99.90
1383;DHT22;685;47.196;11.880;2022-09-20T06:02:24;7.90;99.90
1383;DHT22;685;47.196;11.880;2022-09-20T06:04:59;7.80;99.90
1383;DHT22;685;47.196;11.880;2022-09-20T06:07:42;7.90;99.90
1383;DHT22;685;47.196;11.880;2022-09-20T06:10:32;7.90;99.90
1383;DHT22;685;47.196;11.880;2022-09-20T06:16:14;8.00;99.90
1383;DHT22;685;47.196;11.880;2022-09-20T06:18:46;7.90;99.90
1383;DHT22;685;47.196;11.880;2022-09-20T06:21:23;7.80;99.90
1383;DHT22;685;47.196;11.880;2022-09-20T06:23:55;7.90;99.90
1383;DHT22;685;47.196;11.880;2022-09-20T06:26:26;7.80;99.90
1383;DHT22;685;47.196;11.880;2022-09-20T06:28:58;7.90;99.90
1383;DHT22;685;47.196;11.880;2022-09-20T06:31:27;7.90;99.90
1383;DHT22;685;47.196;11.880;2022-09-20T06:33:56;7.90;99.90
1383;DHT22;685;47.196;11.880;2022-09-20T06:36:27;7.90;99.90
1383;DHT22;685;47.196;11.880;2022-09-20T06:39:20;8.00;99.90
1383;DHT22;685;47.196;11.880;2022-09-20T06:42:06;8.20;99.90
1383;DHT22;685;47.196;11.880;2022-09-20T06:44:35;8.30;99.90
1383;DHT22;685;47.196;11.880;2022-09-20T06:47:08;8.50;99.90
1383;DHT22;685;47.196;11.880;2022-09-20T06:49:36;8.50;99.90
1383;DHT22;685;47.196;11.880;2022-09-20T06:52:04;8.40;99.90
1383;DHT22;685;47.196;11.880;2022-09-20T06:54:32;8.40;99.90
1383;DHT22;685;47.196;11.880;2022-09-20T06:57:01;8.40;99.90
1383;DHT22;685;47.196;11.880;2022-09-20T06:59:29;8.40;99.90
1383;DHT22;685;47.196;11.880;2022-09-20T07:01:56;8.60;99.90
1383;DHT22;685;47.196;11.880;2022-09-20T07:04:24;8.50;99.90
1383;DHT22;685;47.196;11.880;2022-09-20T07:06:52;8.60;99.90
1383;DHT22;685;47.196;11.880;2022-09-20T07:09:19;8.70;99.90
1383;DHT22;685;47.196;11.880;2022-09-20T07:11:46;8.60;99.90
1383;DHT22;685;47.196;11.880;2022-09-20T07:14:13;8.20;99.90
1383;DHT22;685;47.196;11.880;2022-09-20T07:16:40;8.20;99.90
1383;DHT22;685;47.196;11.880;2022-09-20T07:19:07;8.10;99.90
1383;DHT22;685;47.196;11.880;2022-09-20T07:21:36;7.90;99.90
1383;DHT22;685;47.196;11.880;2022-09-20T07:24:03;8.00;99.90
1383;DHT22;685;47.196;11.880;2022-09-20T07:26:30;8.10;99.90
1383;DHT22;685;47.196;11.880;2022-09-20T07:28:58;8.10;99.90
1383;DHT22;685;47.196;11.880;2022-09-20T07:31:27;8.30;99.90
1383;DHT22;685;47.196;11.880;2022-09-20T07:33:54;8.50;99.90
1383;DHT22;685;47.196;11.880;2022-09-20T07:36:21;8.60;99.90
1383;DHT22;685;47.196;11.880;2022-09-20T07:38:51;8.70;99.90
1383;DHT22;685;47.196;11.880;2022-09-20T07:41:19;8.80;99.90
1383;DHT22;685;47.196;11.880;2022-09-20T07:43:47;8.80;99.90
1383;DHT22;685;47.196;11.880;2022-09-20T07:46:15;8.90;99.90
1383;DHT22;685;47.196;11.880;2022-09-20T07:48:42;8.90;99.90
1383;DHT22;685;47.196;11.880;2022-09-20T07:51:11;8.90;99.90
1383;DHT22;685;47.196;11.880;2022-09-20T07:53:39;9.00;99.90
1383;DHT22;685;47.196;11.880;2022-09-20T07:56:10;9.10;99.90
1383;DHT22;685;47.196;11.880;2022-09-20T07:58:38;9.20;99.90
1383;DHT22;685;47.196;11.880;2022-09-20T08:01:06;8.70;99.90
1383;DHT22;685;47.196;11.880;2022-09-20T08:03:34;8.70;99.90
1383;DHT22;685;47.196;11.880;2022-09-20T08:06:03;8.70;99.90
1383;DHT22;685;47.196;11.880;2022-09-20T08:08:32;8.80;99.90
1383;DHT22;685;47.196;11.880;2022-09-20T08:11:01;9.00;99.90
1383;DHT22;685;47.196;11.880;2022-09-20T08:13:34;9.20;99.90
1383;DHT22;685;47.196;11.880;2022-09-20T08:16:02;9.30;99.90
1383;DHT22;685;47.196;11.880;2022-09-20T08:18:30;9.00;99.90
1383;DHT22;685;47.196;11.880;2022-09-20T08:21:02;9.00;99.90
1383;DHT22;685;47.196;11.880;2022-09-20T08:23:32;8.80;99.90
1383;DHT22;685;47.196;11.880;2022-09-20T08:25:59;8.90;99.90
1383;DHT22;685;47.196;11.880;2022-09-20T08:28:27;9.00;99.90
1383;DHT22;685;47.196;11.880;2022-09-20T08:31:01;8.90;99.90
1383;DHT22;685;47.196;11.880;2022-09-20T08:33:28;9.10;99.90
1383;DHT22;685;47.196;11.880;2022-09-20T08:35:55;9.20;99.90
1383;DHT22;685;47.196;11.880;2022-09-20T08:38:22;9.40;99.90
1383;DHT22;685;47.196;11.880;2022-09-20T08:40:53;9.20;99.90
1383;DHT22;685;47.196;11.880;2022-09-20T08:43:25;9.30;99.90
1383;DHT22;685;47.196;11.880;2022-09-20T08:45:54;9.40;99.90
1383;DHT22;685;47.196;11.880;2022-09-20T08:48:25;9.50;99.90
1383;DHT22;685;47.196;11.880;2022-09-20T08:50:54;9.60;99.90
1383;DHT22;685;47.196;11.880;2022-09-20T08:53:21;9.70;99.90
1383;DHT22;685;47.196;11.880;2022-09-20T08:55:48;9.80;99.90
1383;DHT22;685;47.196;11.880;2022-09-20T08:58:15;9.90;99.90
1383;DHT22;685;47.196;11.880;2022-09-20T09:00:45;10.00;99.90
1383;DHT22;685;47.196;11.880;2022-09-20T09:03:13;9.90;99.90
1383;DHT22;685;47.196;11.880;2022-09-20T09:05:45;9.60;99.90
1383;DHT22;685;47.196;11.880;2022-09-20T09:08:13;10.10;99.90
1383;DHT22;685;47.196;11.880;2022-09-20T09:10:43;10.30;99.90
1383;DHT22;685;47.196;11.880;2022-09-20T09:13:20;10.00;99.90
1383;DHT22;685;47.196;11.880;2022-09-20T09:15:52;9.70;99.90
1383;DHT22;685;47.196;11.880;2022-09-20T09:18:29;9.60;99.90
1383;DHT22;685;47.196;11.880;2022-09-20T09:20:58;9.60;99.90
1383;DHT22;685;47.196;11.880;2022-09-20T09:23:28;9.70;99.90
1383;DHT22;685;47.196;11.880;2022-09-20T09:26:03;9.80;99.90
1383;DHT22;685;47.196;11.880;2022-09-20T09:28:31;9.90;99.90
1383;DHT22;685;47.196;11.880;2022-09-20T09:31:13;10.00;99.90
1383;DHT22;685;47.196;11.880;2022-09-20T09:33:43;10.10;99.90
1383;DHT22;685;47.196;11.880;2022-09-20T09:36:15;9.90;99.90
1383;DHT22;685;47.196;11.880;2022-09-20T09:38:44;10.10;99.90
1383;DHT22;685;47.196;11.880;2022-09-20T09:41:23;10.20;99.90
1383;DHT22;685;47.196;11.880;2022-09-20T09:43:58;10.30;99.90
1383;DHT22;685;47.196;11.880;2022-09-20T09:46:25;10.40;99.90
1383;DHT22;685;47.196;11.880;2022-09-20T09:49:07;10.40;99.90
1383;DHT22;685;47.196;11.880;2022-09-20T09:51:36;10.60;99.90
1383;DHT22;685;47.196;11.880;2022-09-20T09:54:04;10.60;99.90
1383;DHT22;685;47.196;11.880;2022-09-20T09:56:42;10.60;99.90
1383;DHT22;685;47.196;11.880;2022-09-20T09:59:54;10.60;99.90
1383;DHT22;685;47.196;11.880;2022-09-20T10:05:50;10.20;99.90
1383;DHT22;685;47.196;11.880;2022-09-20T10:08:30;10.30;99.90
1383;DHT22;685;47.196;11.880;2022-09-20T10:11:06;10.10;99.90
1383;DHT22;685;47.196;11.880;2022-09-20T10:13:43;10.30;99.90
1383;DHT22;685;47.196;11.880;2022-09-20T10:16:26;10.60;99.90
1383;DHT22;685;47.196;11.880;2022-09-20T10:19:01;10.60;99.90
1383;DHT22;685;47.196;11.880;2022-09-20T10:21:38;10.60;99.90
1383;DHT22;685;47.196;11.880;2022-09-20T10:24:19;10.70;99.90
1383;DHT22;685;47.196;11.880;2022-09-20T10:27:06;10.80;99.90
1383;DHT22;685;47.196;11.880;2022-09-20T10:29:45;10.90;99.90
1383;DHT22;685;47.196;11.880;2022-09-20T10:32:27;11.00;99.90
1383;DHT22;685;47.196;11.880;2022-09-20T10:35:19;11.10;99.90
1383;DHT22;685;47.196;11.880;2022-09-20T10:40:59;11.10;99.90
1383;DHT22;685;47.196;11.880;2022-09-20T10:44:00;11.10;99.90
1383;DHT22;685;47.196;11.880;2022-09-20T10:46:36;11.30;99.90
1383;DHT22;685;47.196;11.880;2022-09-20T10:49:15;11.40;99.90
1383;DHT22;685;47.196;11.880;2022-09-20T10:51:49;11.50;99.90
1383;DHT22;685;47.196;11.880;2022-09-20T10:54:29;11.70;99.90
1383;DHT22;685;47.196;11.880;2022-09-20T10:57:16;11.60;99.90
1383;DHT22;685;47.196;11.880;2022-09-20T10:59:46;11.60;99.90
1383;DHT22;685;47.196;11.880;2022-09-20T11:02:31;11.50;99.90
1383;DHT22;685;47.196;11.880;2022-09-20T11:05:29;11.50;99.90
1383;DHT22;685;47.196;11.880;2022-09-20T11:08:05;11.60;99.90
1383;DHT22;685;47.196;11.880;2022-09-20T11:10:37;11.60;99.90
1383;DHT22;685;47.196;11.880;2022-09-20T11:13:18;11.60;99.90
1383;DHT22;685;47.196;11.880;2022-09-20T11:15:48;11.50;99.90
1383;DHT22;685;47.196;11.880;2022-09-20T11:18:22;11.50;99.90
1383;DHT22;685;47.196;11.880;2022-09-20T11:20:57;11.50;99.90
1383;DHT22;685;47.196;11.880;2022-09-20T11:23:38;11.60;99.90
1383;DHT22;685;47.196;11.880;2022-09-20T11:26:09;11.70;99.90
1383;DHT22;685;47.196;11.880;2022-09-20T11:28:42;11.80;99.90
1383;DHT22;685;47.196;11.880;2022-09-20T11:31:18;11.80;99.90
1383;DHT22;685;47.196;11.880;2022-09-20T11:33:51;11.70;99.90
1383;DHT22;685;47.196;11.880;2022-09-20T11:36:22;11.70;99.90
1383;DHT22;685;47.196;11.880;2022-09-20T11:38:54;11.80;99.90
1383;DHT22;685;47.196;11.880;2022-09-20T11:41:25;11.90;99.90
1383;DHT22;685;47.196;11.880;2022-09-20T11:43:57;11.90;99.90
1383;DHT22;685;47.196;11.880;2022-09-20T11:46:28;11.90;99.90
1383;DHT22;685;47.196;11.880;2022-09-20T11:48:59;12.00;99.90
1383;DHT22;685;47.196;11.880;2022-09-20T11:54:49;12.00;99.90
1383;DHT22;685;47.196;11.880;2022-09-20T11:57:21;12.00;99.90
1383;DHT22;685;47.196;11.880;2022-09-20T11:59:53;12.00;99.90
1383;DHT22;685;47.196;11.880;2022-09-20T12:02:23;12.00;99.90
1383;DHT22;685;47.196;11.880;2022-09-20T12:04:55;11.90;99.90
1383;DHT22;685;47.196;11.880;2022-09-20T12:07:25;12.00;99.90
1383;DHT22;685;47.196;11.880;2022-09-20T12:09:56;12.00;99.90
1383;DHT22;685;47.196;11.880;2022-09-20T12:12:32;12.00;99.90
1383;DHT22;685;47.196;11.880;2022-09-20T12:15:04;12.10;99.90
1383;DHT22;685;47.196;11.880;2022-09-20T12:18:01;12.10;99.90
1383;DHT22;685;47.196;11.880;2022-09-20T12:20:56;12.10;99.90
1383;DHT22;685;47.196;11.880;2022-09-20T12:26:43;12.20;99.90
1383;DHT22;685;47.196;11.880;2022-09-20T12:32:41;12.40;99.90
1383;DHT22;685;47.196;11.880;2022-09-20T12:38:29;12.60;99.90
1383;DHT22;685;47.196;11.880;2022-09-20T12:41:12;12.60;99.90
1383;DHT22;685;47.196;11.880;2022-09-20T12:43:51;12.60;99.90
1383;DHT22;685;47.196;11.880;2022-09-20T12:46:21;12.60;99.90
1383;DHT22;685;47.196;11.880;2022-09-20T12:49:24;12.60;99.90
1383;DHT22;685;47.196;11.880;2022-09-20T12:52:26;12.50;99.90
1383;DHT22;685;47.196;11.880;2022-09-20T12:55:25;12.50;99.90
1383;DHT22;685;47.196;11.880;2022-09-20T12:57:53;12.60;99.90
1383;DHT22;685;47.196;11.880;2022-09-20T13:00:33;12.60;99.90
1383;DHT22;685;47.196;11.880;2022-09-20T13:03:22;12.60;99.90
1383;DHT22;685;47.196;11.880;2022-09-20T13:06:21;12.50;99.90
1383;DHT22;685;47.196;11.880;2022-09-20T13:08:51;12.50;99.90
1383;DHT22;685;47.196;11.880;2022-09-20T13:11:22;12.50;99.90
1383;DHT22;685;47.196;11.880;2022-09-20T13:13:55;12.40;99.90
1383;DHT22;685;47.196;11.880;2022-09-20T13:16:28;12.40;99.90
1383;DHT22;685;47.196;11.880;2022-09-20T13:19:01;12.40;99.90
1383;DHT22;685;47.196;11.880;2022-09-20T13:21:33;12.30;99.90
1383;DHT22;685;47.196;11.880;2022-09-20T13:24:03;12.30;99.90
1383;DHT22;685;47.196;11.880;2022-09-20T13:26:33;12.30;99.90
1383;DHT22;685;47.196;11.880;2022-09-20T13:29:02;12.20;99.90
1383;DHT22;685;47.196;11.880;2022-09-20T13:31:32;12.20;99.90
1383;DHT22;685;47.196;11.880;2022-09-20T13:34:20;12.20;99.90
1383;DHT22;685;47.196;11.880;2022-09-20T13:36:53;12.20;99.90
1383;DHT22;685;47.196;11.880;2022-09-20T13:39:27;12.20;99.90
1383;DHT22;685;47.196;11.880;2022-09-20T13:41:59;12.20;99.90
1383;DHT22;685;47.196;11.880;2022-09-20T13:44:29;12.10;99.90
1383;DHT22;685;47.196;11.880;2022-09-20T13:46:58;12.10;99.90
1383;DHT22;685;47.196;11.880;2022-09-20T13:49:30;12.20;99.90
1383;DHT22;685;47.196;11.880;2022-09-20T13:52:13;12.10;99.90
1383;DHT22;685;47.196;11.880;2022-09-20T13:54:45;12.10;99.90
1383;DHT22;685;47.196;11.880;2022-09-20T13:57:17;12.10;99.90
1383;DHT22;685;47.196;11.880;2022-09-20T13:59:45;12.10;99.90
1383;DHT22;685;47.196;11.880;2022-09-20T14:02:21;12.20;99.90
1383;DHT22;685;47.196;11.880;2022-09-20T14:04:50;12.20;99.90
1383;DHT22;685;47.196;11.880;2022-09-20T14:07:22;12.20;99.90
1383;DHT22;685;47.196;11.880;2022-09-20T14:09:51;12.20;99.90
1383;DHT22;685;47.196;11.880;2022-09-20T14:12:20;12.20;99.90
1383;DHT22;685;47.196;11.880;2022-09-20T14:14:49;12.10;99.90
1383;DHT22;685;47.196;11.880;2022-09-20T14:17:19;12.10;99.90
1383;DHT22;685;47.196;11.880;2022-09-20T14:19:50;12.00;99.90
1383;DHT22;685;47.196;11.880;2022-09-20T14:22:23;12.00;99.90
1383;DHT22;685;47.196;11.880;2022-09-20T14:24:59;12.00;99.90
1383;DHT22;685;47.196;11.880;2022-09-20T14:27:27;12.00;99.90
1383;DHT22;685;47.196;11.880;2022-09-20T14:29:56;11.90;99.90
1383;DHT22;685;47.196;11.880;2022-09-20T14:32:36;11.90;99.90
1383;DHT22;685;47.196;11.880;2022-09-20T14:35:06;11.90;99.90
1383;DHT22;685;47.196;11.880;2022-09-20T14:37:40;11.90;99.90
1383;DHT22;685;47.196;11.880;2022-09-20T14:40:20;11.90;99.90
1383;DHT22;685;47.196;11.880;2022-09-20T14:42:51;11.90;99.90
1383;DHT22;685;47.196;11.880;2022-09-20T14:45:22;11.90;99.90
1383;DHT22;685;47.196;11.880;2022-09-20T14:47:56;11.90;99.90
1383;DHT22;685;47.196;11.880;2022-09-20T14:50:26;12.00;99.90
1383;DHT22;685;47.196;11.880;2022-09-20T14:53:03;12.00;99.90
1383;DHT22;685;47.196;11.880;2022-09-20T14:55:31;12.00;99.90
1383;DHT22;685;47.196;11.880;2022-09-20T14:58:01;12.00;99.90
1383;DHT22;685;47.196;11.880;2022-09-20T15:00:28;12.00;99.90
1383;DHT22;685;47.196;11.880;2022-09-20T15:03:02;11.90;99.90
1383;DHT22;685;47.196;11.880;2022-09-20T15:05:30;11.90;99.90
1383;DHT22;685;47.196;11.880;2022-09-20T15:07:58;11.90;99.90
1383;DHT22;685;47.196;11.880;2022-09-20T15:10:27;11.90;99.90
1383;DHT22;685;47.196;11.880;2022-09-20T15:12:55;11.90;99.90
1383;DHT22;685;47.196;11.880;2022-09-20T15:15:22;11.90;99.90
1383;DHT22;685;47.196;11.880;2022-09-20T15:17:49;11.90;99.90
1383;DHT22;685;47.196;11.880;2022-09-20T15:20:18;11.90;99.90
1383;DHT22;685;47.196;11.880;2022-09-20T15:22:46;11.90;99.90
1383;DHT22;685;47.196;11.880;2022-09-20T15:25:15;11.80;99.90
1383;DHT22;685;47.196;11.880;2022-09-20T15:27:44;11.80;99.90
1383;DHT22;685;47.196;11.880;2022-09-20T15:30:13;11.80;99.90
1383;DHT22;685;47.196;11.880;2022-09-20T15:32:41;11.80;99.90
1383;DHT22;685;47.196;11.880;2022-09-20T15:35:08;11.80;99.90
1383;DHT22;685;47.196;11.880;2022-09-20T15:37:35;11.70;99.90
1383;DHT22;685;47.196;11.880;2022-09-20T15:40:04;11.80;99.90
1383;DHT22;685;47.196;11.880;2022-09-20T15:42:31;11.70;99.90
1383;DHT22;685;47.196;11.880;2022-09-20T15:45:05;11.70;99.90
1383;DHT22;685;47.196;11.880;2022-09-20T15:47:34;11.80;99.90
1383;DHT22;685;47.196;11.880;2022-09-20T15:50:02;11.80;99.90
1383;DHT22;685;47.196;11.880;2022-09-20T15:52:32;11.60;99.90
1383;DHT22;685;47.196;11.880;2022-09-20T15:54:59;11.40;99.90
1383;DHT22;685;47.196;11.880;2022-09-20T15:57:28;11.50;99.90
1383;DHT22;685;47.196;11.880;2022-09-20T15:59:55;11.50;99.90
1383;DHT22;685;47.196;11.880;2022-09-20T16:02:25;11.50;99.90
1383;DHT22;685;47.196;11.880;2022-09-20T16:04:53;11.50;99.90
1383;DHT22;685;47.196;11.880;2022-09-20T16:07:22;11.40;99.90
1383;DHT22;685;47.196;11.880;2022-09-20T16:09:51;11.40;99.90
1383;DHT22;685;47.196;11.880;2022-09-20T16:12:19;11.40;99.90
1383;DHT22;685;47.196;11.880;2022-09-20T16:14:46;11.30;99.90
1383;DHT22;685;47.196;11.880;2022-09-20T16:17:13;11.40;99.90
1383;DHT22;685;47.196;11.880;2022-09-20T16:19:41;11.40;99.90
1383;DHT22;685;47.196;11.880;2022-09-20T16:22:09;11.40;99.90
1383;DHT22;685;47.196;11.880;2022-09-20T16:24:37;11.30;99.90
1383;DHT22;685;47.196;11.880;2022-09-20T16:27:06;11.40;99.90
1383;DHT22;685;47.196;11.880;2022-09-20T16:29:34;11.40;99.90
1383;DHT22;685;47.196;11.880;2022-09-20T16:32:01;11.40;99.90
1383;DHT22;685;47.196;11.880;2022-09-20T16:34:31;11.20;99.90
1383;DHT22;685;47.196;11.880;2022-09-20T16:37:02;11.20;99.90
1383;DHT22;685;47.196;11.880;2022-09-20T16:39:30;11.20;99.90
1383;DHT22;685;47.196;11.880;2022-09-20T16:41:58;11.20;99.90
1383;DHT22;685;47.196;11.880;2022-09-20T16:44:29;11.10;99.90
1383;DHT22;685;47.196;11.880;2022-09-20T16:46:56;11.20;99.90
1383;DHT22;685;47.196;11.880;2022-09-20T16:49:23;11.10;99.90
1383;DHT22;685;47.196;11.880;2022-09-20T16:51:54;11.10;99.90
1383;DHT22;685;47.196;11.880;2022-09-20T16:54:23;11.10;99.90
1383;DHT22;685;47.196;11.880;2022-09-20T16:56:50;10.90;99.90
1383;DHT22;685;47.196;11.880;2022-09-20T16:59:18;10.80;99.90
1383;DHT22;685;47.196;11.880;2022-09-20T17:01:47;10.70;99.90
1383;DHT22;685;47.196;11.880;2022-09-20T17:04:15;10.70;99.90
1383;DHT22;685;47.196;11.880;2022-09-20T17:06:44;10.70;99.90
1383;DHT22;685;47.196;11.880;2022-09-20T17:09:12;10.60;99.90
1383;DHT22;685;47.196;11.880;2022-09-20T17:11:43;10.60;99.90
1383;DHT22;685;47.196;11.880;2022-09-20T17:14:11;10.70;99.90
1383;DHT22;685;47.196;11.880;2022-09-20T17:16:39;10.70;99.90
1383;DHT22;685;47.196;11.880;2022-09-20T17:19:08;10.70;99.90
1383;DHT22;685;47.196;11.880;2022-09-20T17:21:37;10.80;99.90
1383;DHT22;685;47.196;11.880;2022-09-20T17:24:05;10.90;99.90
1383;DHT22;685;47.196;11.880;2022-09-20T17:26:34;10.90;99.90
1383;DHT22;685;47.196;11.880;2022-09-20T17:29:05;11.00;99.90
1383;DHT22;685;47.196;11.880;2022-09-20T17:31:36;10.90;99.90
1383;DHT22;685;47.196;11.880;2022-09-20T17:34:04;10.90;99.90
1383;DHT22;685;47.196;11.880;2022-09-20T17:36:34;10.90;99.90
1383;DHT22;685;47.196;11.880;2022-09-20T17:39:05;10.90;99.90
1383;DHT22;685;47.196;11.880;2022-09-20T17:41:34;10.80;99.90
1383;DHT22;685;47.196;11.880;2022-09-20T17:44:03;10.80;99.90
1383;DHT22;685;47.196;11.880;2022-09-20T17:46:33;10.90;99.90
1383;DHT22;685;47.196;11.880;2022-09-20T17:49:03;10.70;99.90
1383;DHT22;685;47.196;11.880;2022-09-20T17:51:32;10.50;99.90
1383;DHT22;685;47.196;11.880;2022-09-20T17:54:00;10.40;99.90